createdAt,value
2017-10-06T00:00:34.438Z,5.15
2017-10-06T00:03:01.995Z,5.78
2017-10-06T00:05:29.555Z,5.93
2017-10-06T00:07:57.304Z,5.65
2017-10-06T00:10:24.836Z,5.40
2017-10-06T00:12:52.368Z,4.90
2017-10-06T00:15:20.100Z,5.15
2017-10-06T00:17:47.628Z,4.80
2017-10-06T00:20:15.373Z,5.25
2017-10-06T00:22:43.403Z,4.45
2017-10-06T00:25:10.950Z,4.80
2017-10-06T00:27:38.480Z,5.78
2017-10-06T00:30:06.376Z,4.28
2017-10-06T00:32:34.025Z,4.43
2017-10-06T00:35:01.597Z,4.25
2017-10-06T00:37:29.563Z,3.87
2017-10-06T00:39:57.124Z,4.05
2017-10-06T00:42:24.675Z,3.97
2017-10-06T00:44:52.447Z,3.72
2017-10-06T00:47:20.046Z,3.55
2017-10-06T00:49:47.564Z,3.00
2017-10-06T00:52:15.311Z,3.30
2017-10-06T00:54:42.840Z,4.07
2017-10-06T00:57:10.388Z,3.42
2017-10-06T00:59:38.300Z,2.85
2017-10-06T01:02:05.872Z,2.97
2017-10-06T01:04:33.403Z,3.22
2017-10-06T01:07:01.182Z,2.42
2017-10-06T01:09:28.703Z,2.72
2017-10-06T01:11:56.232Z,3.05
2017-10-06T01:14:23.808Z,3.47
2017-10-06T01:16:51.339Z,3.08
2017-10-06T01:19:19.810Z,2.90
2017-10-06T01:21:47.588Z,4.90
2017-10-06T01:24:15.132Z,2.92
2017-10-06T01:26:42.707Z,4.50
2017-10-06T01:29:10.283Z,3.78
2017-10-06T01:31:37.844Z,3.05
2017-10-06T01:34:05.368Z,3.92
2017-10-06T01:36:33.276Z,3.20
2017-10-06T01:39:00.795Z,2.65
2017-10-06T01:41:28.354Z,3.90
2017-10-06T01:43:55.911Z,3.03
2017-10-06T01:46:23.472Z,2.60
2017-10-06T01:48:51.031Z,3.20
2017-10-06T01:51:18.590Z,3.22
2017-10-06T01:53:46.148Z,2.58
2017-10-06T01:56:13.714Z,3.03
2017-10-06T01:58:41.456Z,2.37
2017-10-06T02:01:08.984Z,2.90
2017-10-06T02:03:36.591Z,4.28
2017-10-06T02:06:04.140Z,2.33
2017-10-06T02:08:31.716Z,3.17
2017-10-06T02:10:59.267Z,3.10
2017-10-06T02:13:27.080Z,2.55
2017-10-06T02:15:54.629Z,2.85
2017-10-06T02:18:22.384Z,2.80
2017-10-06T02:20:50.030Z,2.85
2017-10-06T02:23:17.575Z,2.87
2017-10-06T02:25:45.149Z,2.55
2017-10-06T02:28:12.724Z,2.20
2017-10-06T02:30:40.252Z,2.70
2017-10-06T02:33:07.814Z,2.60
2017-10-06T02:35:35.358Z,3.78
2017-10-06T02:38:02.992Z,2.03
2017-10-06T02:40:30.518Z,3.25
2017-10-06T02:42:58.256Z,5.55
2017-10-06T02:45:25.775Z,3.75
2017-10-06T02:47:53.299Z,3.40
2017-10-06T02:50:21.026Z,3.03
2017-10-06T02:52:48.592Z,4.60
2017-10-06T02:55:16.152Z,3.30
2017-10-06T02:57:43.725Z,3.22
2017-10-06T03:00:11.268Z,3.35
2017-10-06T03:02:38.828Z,3.83
2017-10-06T03:05:06.591Z,3.28
2017-10-06T03:07:34.322Z,3.30
2017-10-06T03:10:01.889Z,3.30
2017-10-06T03:12:29.595Z,3.45
2017-10-06T03:14:57.135Z,3.33
2017-10-06T03:17:24.694Z,3.30
2017-10-06T03:19:52.356Z,3.05
2017-10-06T03:22:19.876Z,2.78
2017-10-06T03:24:47.395Z,3.20
2017-10-06T03:27:15.251Z,3.00
2017-10-06T03:29:42.796Z,3.20
2017-10-06T03:32:10.313Z,2.67
2017-10-06T03:34:38.155Z,2.70
2017-10-06T03:37:05.671Z,3.70
2017-10-06T03:39:33.235Z,3.40
2017-10-06T03:42:01.108Z,3.15
2017-10-06T03:44:28.620Z,2.95
2017-10-06T03:46:56.143Z,3.05
2017-10-06T03:49:23.864Z,3.00
2017-10-06T03:51:51.443Z,3.92
2017-10-06T03:54:18.964Z,2.90
2017-10-06T03:56:46.765Z,5.25
2017-10-06T03:59:14.325Z,4.70
2017-10-06T04:01:41.885Z,2.80
2017-10-06T04:04:09.632Z,3.53
2017-10-06T04:06:37.156Z,3.12
2017-10-06T04:09:04.846Z,3.35
2017-10-06T04:11:32.619Z,3.58
2017-10-06T04:14:00.139Z,3.42
2017-10-06T04:16:27.688Z,3.12
2017-10-06T04:18:55.391Z,3.47
2017-10-06T04:21:22.972Z,3.70
2017-10-06T04:23:50.531Z,3.62
2017-10-06T04:26:18.275Z,3.22
2017-10-06T04:28:45.853Z,3.55
2017-10-06T04:31:13.414Z,3.22
2017-10-06T04:33:40.984Z,2.25
2017-10-06T04:36:08.530Z,2.95
2017-10-06T04:38:36.090Z,2.70
2017-10-06T04:41:04.040Z,3.75
2017-10-06T04:43:31.561Z,3.17
2017-10-06T04:45:59.585Z,3.12
2017-10-06T04:48:27.132Z,3.08
2017-10-06T04:50:54.705Z,3.80
2017-10-06T04:53:22.224Z,3.20
2017-10-06T04:55:49.822Z,3.87
2017-10-06T04:58:17.380Z,3.42
2017-10-06T05:00:45.023Z,3.15
2017-10-06T05:03:12.592Z,4.22
2017-10-06T05:05:40.110Z,3.70
2017-10-06T05:08:07.644Z,3.33
2017-10-06T05:10:35.380Z,3.50
2017-10-06T05:13:02.941Z,3.97
2017-10-06T05:15:30.501Z,3.58
2017-10-06T05:17:58.064Z,3.70
2017-10-06T05:20:25.630Z,4.43
2017-10-06T05:22:53.177Z,3.20
2017-10-06T05:25:21.043Z,4.20
2017-10-06T05:27:48.645Z,3.10
2017-10-06T05:30:16.171Z,3.53
2017-10-06T05:32:43.822Z,3.30
2017-10-06T05:35:11.383Z,3.92
2017-10-06T05:37:38.940Z,3.58
2017-10-06T05:40:06.687Z,3.78
2017-10-06T05:42:34.212Z,3.87
2017-10-06T05:45:01.745Z,3.17
2017-10-06T05:47:29.689Z,3.25
2017-10-06T05:49:57.217Z,4.37
2017-10-06T05:52:24.736Z,4.45
2017-10-06T05:54:52.673Z,4.57
2017-10-06T05:57:20.234Z,3.35
2017-10-06T05:59:47.808Z,3.80
2017-10-06T06:02:15.536Z,3.80
2017-10-06T06:04:43.059Z,4.30
2017-10-06T06:07:10.583Z,4.20
2017-10-06T06:09:38.130Z,3.78
2017-10-06T06:12:05.691Z,4.30
2017-10-06T06:14:33.248Z,3.97
2017-10-06T06:17:01.934Z,4.70
2017-10-06T06:19:29.514Z,5.20
2017-10-06T06:21:57.066Z,4.40
2017-10-06T06:24:24.612Z,4.20
2017-10-06T06:26:52.170Z,4.50
2017-10-06T06:29:19.741Z,3.15
2017-10-06T06:31:48.218Z,4.40
2017-10-06T06:34:15.769Z,4.07
2017-10-06T06:36:44.353Z,3.97
2017-10-06T06:39:11.916Z,3.58
2017-10-06T06:41:39.471Z,3.83
2017-10-06T06:44:07.033Z,4.87
2017-10-06T06:46:35.308Z,5.35
2017-10-06T06:49:02.840Z,3.60
2017-10-06T06:51:30.426Z,4.47
2017-10-06T06:53:58.197Z,5.37
2017-10-06T06:56:25.719Z,4.18
2017-10-06T06:58:53.244Z,4.22
2017-10-06T07:01:20.866Z,4.75
2017-10-06T07:03:48.425Z,3.83
2017-10-06T07:06:15.983Z,4.43
2017-10-06T07:08:43.737Z,3.40
2017-10-06T07:11:11.310Z,3.53
2017-10-06T07:13:38.859Z,4.47
2017-10-06T07:16:06.453Z,5.10
2017-10-06T07:18:34.041Z,4.07
2017-10-06T07:21:01.560Z,4.32
2017-10-06T07:23:29.259Z,4.65
2017-10-06T07:25:56.791Z,3.87
2017-10-06T07:28:24.313Z,3.58
2017-10-06T07:30:52.093Z,4.78
2017-10-06T07:33:19.611Z,3.75
2017-10-06T07:35:47.143Z,3.85
2017-10-06T07:38:14.888Z,3.45
2017-10-06T07:40:42.416Z,4.30
2017-10-06T07:43:09.937Z,3.40
2017-10-06T07:45:37.797Z,2.75
2017-10-06T07:48:05.324Z,3.67
2017-10-06T07:50:32.855Z,2.40
2017-10-06T07:53:00.787Z,2.70
2017-10-06T07:55:28.310Z,3.05
2017-10-06T07:57:55.845Z,2.58
2017-10-06T08:00:23.405Z,2.45
2017-10-06T08:02:50.968Z,1.42
2017-10-06T08:05:18.801Z,2.10
2017-10-06T08:07:46.701Z,1.42
2017-10-06T08:10:14.223Z,1.50
2017-10-06T08:12:42.461Z,1.42
2017-10-06T08:15:10.900Z,1.17
2017-10-06T08:17:38.474Z,1.25
2017-10-06T08:20:05.996Z,1.10
2017-10-06T08:22:33.797Z,1.05
2017-10-06T08:25:01.327Z,1.60
2017-10-06T08:27:28.865Z,1.23
2017-10-06T08:29:56.568Z,1.17
2017-10-06T08:32:24.134Z,1.30
2017-10-06T08:34:51.694Z,1.37
2017-10-06T08:37:19.443Z,1.27
2017-10-06T08:39:46.965Z,1.77
2017-10-06T08:42:14.490Z,1.23
2017-10-06T08:44:42.340Z,1.40
2017-10-06T08:47:09.920Z,1.53
2017-10-06T08:49:37.460Z,1.07
2017-10-06T08:52:05.308Z,1.10
2017-10-06T08:54:32.836Z,1.10
2017-10-06T08:57:00.392Z,1.10
2017-10-06T08:59:28.206Z,1.37
2017-10-06T09:01:55.772Z,1.40
2017-10-06T09:04:23.325Z,1.30
2017-10-06T09:06:50.900Z,1.07
2017-10-06T09:09:18.466Z,1.07
2017-10-06T09:11:45.991Z,1.43
2017-10-06T09:14:13.669Z,1.60
2017-10-06T09:16:41.184Z,1.80
2017-10-06T09:19:08.700Z,1.20
2017-10-06T09:21:36.342Z,1.37
2017-10-06T09:24:04.413Z,1.97
2017-10-06T09:26:31.970Z,1.17
2017-10-06T09:28:59.735Z,1.07
2017-10-06T09:31:27.255Z,1.27
2017-10-06T09:33:54.781Z,1.93
2017-10-06T09:36:22.516Z,1.53
2017-10-06T09:38:50.075Z,1.30
2017-10-06T09:41:17.604Z,1.30
2017-10-06T09:43:45.193Z,1.17
2017-10-06T09:46:12.752Z,1.17
2017-10-06T09:48:40.311Z,1.13
2017-10-06T09:51:07.873Z,1.60
2017-10-06T09:53:35.428Z,1.17
2017-10-06T09:56:02.950Z,0.87
2017-10-06T09:58:30.634Z,1.50
2017-10-06T10:00:58.256Z,0.93
2017-10-06T10:03:25.776Z,1.53
2017-10-06T10:05:53.516Z,1.30
2017-10-06T10:08:21.051Z,1.00
2017-10-06T10:10:49.571Z,1.43
2017-10-06T10:13:17.166Z,1.63
2017-10-06T10:15:44.696Z,1.70
2017-10-06T10:18:12.217Z,1.13
2017-10-06T10:20:39.910Z,1.20
2017-10-06T10:23:07.478Z,1.43
2017-10-06T10:25:35.003Z,1.30
2017-10-06T10:28:02.672Z,1.10
2017-10-06T10:30:30.197Z,1.40
2017-10-06T10:32:57.720Z,1.17
2017-10-06T10:35:25.279Z,2.90
2017-10-06T10:37:52.822Z,1.87
2017-10-06T10:40:20.343Z,1.30
2017-10-06T10:42:48.153Z,1.50
2017-10-06T10:45:15.705Z,1.33
2017-10-06T10:47:43.266Z,1.83
2017-10-06T10:50:11.029Z,1.30
2017-10-06T10:52:38.602Z,1.50
2017-10-06T10:55:06.129Z,1.57
2017-10-06T10:57:34.040Z,1.40
2017-10-06T11:00:01.555Z,1.30
2017-10-06T11:02:29.084Z,2.43
2017-10-06T11:04:56.646Z,1.73
2017-10-06T11:07:24.168Z,2.50
2017-10-06T11:09:51.688Z,1.93
2017-10-06T11:12:19.396Z,3.27
2017-10-06T11:17:21.243Z,2.50
2017-10-06T11:19:48.825Z,1.93
2017-10-06T11:22:16.516Z,1.50
2017-10-06T11:24:44.324Z,2.47
2017-10-06T11:27:11.903Z,2.23
2017-10-06T11:29:39.465Z,2.00
2017-10-06T11:32:07.449Z,2.27
2017-10-06T11:34:35.205Z,3.00
2017-10-06T11:37:02.949Z,2.37
2017-10-06T11:39:30.577Z,2.00
2017-10-06T11:41:58.166Z,3.33
2017-10-06T11:44:25.726Z,2.00
2017-10-06T11:46:53.489Z,2.27
2017-10-06T11:49:21.069Z,2.57
2017-10-06T11:51:48.914Z,3.13
2017-10-06T11:54:16.987Z,3.13
2017-10-06T11:56:44.779Z,2.30
2017-10-06T11:59:12.653Z,2.70
2017-10-06T12:01:41.302Z,2.50
2017-10-06T12:04:09.071Z,2.90
2017-10-06T12:06:37.046Z,2.47
2017-10-06T12:09:05.722Z,2.80
2017-10-06T12:11:33.587Z,2.70
2017-10-06T12:14:01.307Z,2.67
2017-10-06T12:16:29.116Z,2.00
2017-10-06T12:18:56.868Z,3.07
2017-10-06T12:21:24.540Z,3.30
2017-10-06T12:23:52.494Z,3.90
2017-10-06T12:26:20.071Z,2.40
2017-10-06T12:28:47.767Z,2.53
2017-10-06T12:31:15.813Z,2.03
2017-10-06T12:33:43.589Z,2.07
2017-10-06T12:36:11.327Z,2.30
2017-10-06T12:38:39.048Z,2.97
2017-10-06T12:41:06.673Z,2.83
2017-10-06T12:43:34.423Z,2.55
2017-10-06T12:46:02.488Z,2.85
2017-10-06T12:48:30.263Z,2.58
2017-10-06T12:50:57.822Z,2.10
2017-10-06T12:53:25.423Z,2.30
2017-10-06T12:55:53.441Z,2.37
2017-10-06T12:58:21.409Z,2.00
2017-10-06T13:00:49.494Z,2.27
2017-10-06T13:03:17.161Z,2.37
2017-10-06T13:05:44.699Z,2.20
2017-10-06T13:08:12.873Z,2.73
2017-10-06T13:10:40.544Z,2.63
2017-10-06T13:13:08.290Z,3.10
2017-10-06T13:15:36.294Z,2.70
2017-10-06T13:18:03.972Z,2.57
2017-10-06T13:20:31.830Z,2.93
2017-10-06T13:22:59.723Z,1.93
2017-10-06T13:25:27.424Z,2.30
2017-10-06T13:27:55.090Z,3.63
2017-10-06T13:30:23.081Z,3.57
2017-10-06T13:32:51.433Z,3.07
2017-10-06T13:35:19.217Z,3.17
2017-10-06T13:37:47.063Z,2.80
2017-10-06T13:40:14.726Z,3.47
2017-10-06T13:42:42.491Z,3.40
2017-10-06T13:45:10.662Z,2.77
2017-10-06T13:47:38.457Z,2.60
2017-10-06T13:50:06.175Z,3.73
2017-10-06T13:52:34.261Z,3.83
2017-10-06T13:55:02.641Z,3.70
2017-10-06T13:57:31.120Z,3.60
2017-10-06T13:59:59.310Z,4.00
2017-10-06T14:02:27.127Z,4.53
2017-10-06T14:04:55.231Z,3.87
2017-10-06T14:07:23.316Z,3.93
2017-10-06T14:09:51.169Z,4.20
2017-10-06T14:12:18.958Z,3.53
2017-10-06T14:14:46.836Z,3.90
2017-10-06T14:17:14.627Z,4.60
2017-10-06T14:19:42.449Z,4.93
2017-10-06T14:22:10.708Z,3.73
2017-10-06T14:24:38.388Z,4.70
2017-10-06T14:27:06.234Z,4.70
2017-10-06T14:29:34.124Z,5.47
2017-10-06T14:32:01.864Z,5.53
2017-10-06T14:34:29.579Z,5.33
2017-10-06T14:36:57.493Z,7.60
2017-10-06T14:39:25.274Z,5.50
2017-10-06T14:41:53.040Z,6.23
2017-10-06T14:44:21.194Z,5.77
2017-10-06T14:46:48.964Z,6.10
2017-10-06T14:49:16.722Z,7.53
2017-10-06T14:51:44.693Z,5.40
2017-10-06T14:54:12.455Z,5.90
2017-10-06T14:56:40.021Z,5.67
2017-10-06T14:59:07.881Z,5.27
2017-10-06T15:01:35.439Z,4.80
2017-10-06T15:04:03.100Z,5.50
2017-10-06T15:06:30.867Z,5.10
2017-10-06T15:08:58.464Z,5.77
2017-10-06T15:11:26.012Z,11.23
2017-10-06T15:13:53.749Z,4.80
2017-10-06T15:16:21.409Z,3.70
2017-10-06T15:18:48.968Z,5.20
2017-10-06T15:21:16.569Z,10.10
2017-10-06T15:23:44.195Z,7.50
2017-10-06T15:26:11.746Z,6.43
2017-10-06T15:28:39.512Z,4.07
2017-10-06T15:31:07.175Z,3.30
2017-10-06T15:33:34.731Z,3.20
2017-10-06T15:36:02.391Z,4.10
2017-10-06T15:38:29.965Z,3.10
2017-10-06T15:40:58.091Z,3.37
2017-10-06T15:43:25.910Z,3.50
2017-10-06T15:45:53.439Z,4.50
2017-10-06T15:48:21.031Z,3.50
2017-10-06T15:50:48.874Z,4.97
2017-10-06T15:53:16.411Z,4.27
2017-10-06T15:55:43.993Z,2.90
2017-10-06T15:58:12.064Z,3.73
2017-10-06T16:00:39.950Z,4.05
2017-10-06T16:03:07.753Z,3.75
2017-10-06T16:05:35.558Z,4.07
2017-10-06T16:08:03.134Z,4.28
2017-10-06T16:10:30.733Z,4.70
2017-10-06T16:12:58.579Z,4.28
2017-10-06T16:15:26.429Z,5.40
2017-10-06T16:17:54.281Z,4.70
2017-10-06T16:20:21.860Z,4.25
2017-10-06T16:22:49.418Z,5.18
2017-10-06T16:25:16.977Z,4.57
2017-10-06T16:27:44.618Z,4.70
2017-10-06T16:30:12.171Z,5.20
2017-10-06T16:32:39.729Z,4.75
2017-10-06T16:35:07.497Z,4.95
2017-10-06T16:37:35.040Z,6.20
2017-10-06T16:40:02.608Z,6.30
2017-10-06T16:42:30.585Z,4.70
2017-10-06T16:44:58.249Z,5.45
2017-10-06T16:47:25.825Z,4.75
2017-10-06T16:49:53.391Z,5.75
2017-10-06T16:52:20.952Z,4.82
2017-10-06T16:54:48.486Z,5.43
2017-10-06T16:57:16.144Z,5.05
2017-10-06T16:59:43.808Z,4.62
2017-10-06T17:02:11.655Z,4.53
2017-10-06T17:04:39.258Z,4.87
2017-10-06T17:07:06.809Z,5.70
2017-10-06T17:09:34.453Z,5.20
2017-10-06T17:12:03.131Z,5.12
2017-10-06T17:14:30.684Z,5.43
2017-10-06T17:16:58.358Z,5.75
2017-10-06T17:19:26.064Z,4.15
2017-10-06T17:21:53.596Z,4.18
2017-10-06T17:24:21.145Z,4.40
2017-10-06T17:26:49.016Z,3.55
2017-10-06T17:29:17.823Z,3.28
2017-10-06T17:31:45.766Z,3.08
2017-10-06T17:34:13.939Z,3.70
2017-10-06T17:36:42.437Z,3.03
2017-10-06T17:39:10.522Z,10.38
2017-10-06T17:41:38.883Z,4.90
2017-10-06T17:44:06.832Z,8.70
2017-10-06T17:46:34.391Z,6.97
2017-10-06T17:49:02.360Z,5.78
2017-10-06T17:51:30.330Z,8.10
2017-10-06T17:53:58.194Z,7.72
2017-10-06T17:56:25.964Z,5.90
2017-10-06T17:58:54.395Z,3.92
2017-10-06T18:01:22.308Z,3.40
2017-10-06T18:03:50.559Z,3.62
2017-10-06T18:06:18.369Z,3.40
2017-10-06T18:08:46.109Z,3.40
2017-10-06T18:11:14.129Z,4.05
2017-10-06T18:13:42.317Z,4.12
2017-10-06T18:16:10.479Z,4.75
2017-10-06T18:18:38.565Z,4.80
2017-10-06T18:21:06.466Z,4.72
2017-10-06T18:23:34.449Z,4.35
2017-10-06T18:26:02.199Z,4.95
2017-10-06T18:28:29.962Z,4.80
2017-10-06T18:30:59.463Z,4.97
2017-10-06T18:33:28.509Z,4.40
2017-10-06T18:35:56.783Z,5.15
2017-10-06T18:38:25.475Z,6.10
2017-10-06T18:40:54.939Z,5.12
2017-10-06T18:43:23.054Z,4.78
2017-10-06T18:45:51.674Z,4.62
2017-10-06T18:48:20.626Z,4.40
2017-10-06T18:50:49.186Z,4.22
2017-10-06T18:53:17.364Z,4.03
2017-10-06T18:55:45.740Z,3.85
2017-10-06T18:58:13.892Z,4.20
2017-10-06T19:00:42.209Z,3.30
2017-10-06T19:03:10.479Z,3.60
2017-10-06T19:05:38.304Z,2.75
2017-10-06T19:08:06.573Z,3.80
2017-10-06T19:10:35.524Z,2.95
2017-10-06T19:13:04.390Z,2.60
2017-10-06T19:15:32.938Z,2.83
2017-10-06T19:18:01.246Z,2.20
2017-10-06T19:20:29.744Z,2.60
2017-10-06T19:22:58.550Z,2.83
2017-10-06T19:25:27.407Z,2.53
2017-10-06T19:27:56.086Z,2.15
2017-10-06T19:30:24.864Z,2.58
2017-10-06T19:32:53.243Z,3.47
2017-10-06T19:35:21.340Z,3.75
2017-10-06T19:37:50.201Z,2.25
2017-10-06T19:40:19.623Z,2.53
2017-10-06T19:42:47.459Z,2.10
2017-10-06T19:45:16.213Z,2.40
2017-10-06T19:47:44.993Z,2.83
2017-10-06T19:50:13.479Z,2.47
2017-10-06T19:52:41.866Z,2.80
2017-10-06T19:55:11.327Z,2.55
2017-10-06T19:57:39.867Z,3.22
2017-10-06T20:00:08.244Z,2.50
2017-10-06T20:02:36.875Z,2.65
2017-10-06T20:05:05.618Z,2.08
2017-10-06T20:07:34.669Z,2.40
2017-10-06T20:10:04.023Z,2.42
2017-10-06T20:12:32.435Z,2.03
2017-10-06T20:15:02.144Z,2.62
2017-10-06T20:17:30.974Z,1.85
2017-10-06T20:19:59.630Z,2.40
2017-10-06T20:22:29.604Z,2.20
2017-10-06T20:24:58.572Z,2.10
2017-10-06T20:27:27.857Z,2.40
2017-10-06T20:29:56.285Z,2.40
2017-10-06T20:32:25.646Z,1.52
2017-10-06T20:34:55.754Z,1.40
2017-10-06T20:37:24.441Z,2.00
2017-10-06T20:39:53.777Z,2.00
2017-10-06T20:42:22.211Z,2.47
2017-10-06T20:44:51.012Z,2.10
2017-10-06T20:47:20.545Z,1.85
2017-10-06T20:49:49.394Z,2.05
2017-10-06T20:52:18.139Z,1.98
2017-10-06T20:54:46.326Z,1.90
2017-10-06T20:57:14.486Z,1.70
2017-10-06T20:59:43.490Z,1.80
2017-10-06T21:02:11.509Z,1.70
2017-10-06T21:04:39.915Z,2.72
2017-10-06T21:07:09.085Z,1.73
2017-10-06T21:09:38.038Z,1.83
2017-10-06T21:12:06.965Z,2.37
2017-10-06T21:14:35.520Z,1.40
2017-10-06T21:17:03.566Z,1.80
2017-10-06T21:19:31.815Z,1.85
2017-10-06T21:22:00.995Z,1.83
2017-10-06T21:24:30.110Z,1.95
2017-10-06T21:26:58.084Z,1.50
2017-10-06T21:29:26.963Z,1.80
2017-10-06T21:31:55.800Z,1.42
2017-10-06T21:34:24.381Z,1.90
2017-10-06T21:36:53.015Z,2.20
2017-10-06T21:39:21.725Z,2.60
2017-10-06T21:41:50.260Z,2.00
2017-10-06T21:44:18.844Z,2.42
2017-10-06T21:46:47.000Z,1.90
2017-10-06T21:49:15.311Z,1.90
2017-10-06T21:51:43.655Z,2.22
2017-10-06T21:54:12.203Z,1.70
2017-10-06T21:56:40.198Z,1.83
2017-10-06T21:59:08.849Z,1.67
2017-10-06T22:01:37.039Z,1.65
2017-10-06T22:04:05.486Z,1.60
2017-10-06T22:06:34.229Z,1.70
2017-10-06T22:09:02.471Z,2.00
2017-10-06T22:11:30.331Z,1.60
2017-10-06T22:13:58.774Z,1.87
2017-10-06T22:16:26.704Z,2.55
2017-10-06T22:18:54.688Z,1.70
2017-10-06T22:21:23.073Z,1.90
2017-10-06T22:23:51.521Z,1.62
2017-10-06T22:26:19.656Z,1.90
2017-10-06T22:28:48.009Z,2.47
2017-10-06T22:31:15.927Z,1.70
2017-10-06T22:33:44.112Z,1.90
2017-10-06T22:36:12.514Z,2.25
2017-10-06T22:38:40.643Z,1.90
2017-10-06T22:41:08.645Z,1.80
2017-10-06T22:43:36.790Z,1.55
2017-10-06T22:46:04.849Z,2.17
2017-10-06T22:48:32.839Z,1.60
2017-10-06T22:51:01.292Z,2.58
2017-10-06T22:53:29.331Z,2.28
2017-10-06T22:55:57.334Z,1.92
2017-10-06T22:58:25.342Z,3.20
2017-10-06T23:00:56.781Z,1.75
2017-10-06T23:03:24.737Z,2.35
2017-10-06T23:05:52.927Z,2.72
2017-10-06T23:08:21.124Z,1.83
2017-10-06T23:10:49.564Z,2.05
2017-10-06T23:13:17.362Z,2.10
2017-10-06T23:15:45.822Z,2.15
2017-10-06T23:18:13.881Z,2.25
2017-10-06T23:20:42.012Z,2.05
2017-10-06T23:23:10.124Z,2.47
2017-10-06T23:25:37.717Z,1.75
2017-10-06T23:28:06.247Z,2.25
2017-10-06T23:30:34.950Z,2.03
2017-10-06T23:33:03.380Z,2.30
2017-10-06T23:35:31.559Z,3.15
2017-10-06T23:37:59.686Z,2.87
2017-10-06T23:40:31.578Z,2.30
2017-10-06T23:42:59.618Z,2.22
2017-10-06T23:45:27.640Z,2.40
2017-10-06T23:47:56.571Z,2.28
2017-10-06T23:50:24.714Z,2.70
2017-10-06T23:52:53.339Z,3.30
2017-10-06T23:55:22.284Z,2.53
2017-10-06T23:57:50.710Z,3.20
